createdAt,value
2017-09-13T00:01:42.792Z,81.84
2017-09-13T00:04:09.815Z,81.30
2017-09-13T00:06:36.103Z,81.08
2017-09-13T00:09:03.114Z,81.25
2017-09-13T00:11:29.533Z,81.59
2017-09-13T00:13:55.766Z,81.42
2017-09-13T00:16:22.004Z,81.69
2017-09-13T00:18:48.364Z,81.62
2017-09-13T00:21:14.571Z,81.76
2017-09-13T00:23:40.789Z,81.96
2017-09-13T00:26:07.113Z,81.60
2017-09-13T00:28:34.193Z,81.69
2017-09-13T00:31:00.413Z,82.11
2017-09-13T00:33:26.697Z,82.36
2017-09-13T00:35:53.004Z,82.58
2017-09-13T00:38:19.214Z,82.43
2017-09-13T00:40:46.236Z,82.33
2017-09-13T00:43:12.552Z,82.13
2017-09-13T00:45:38.865Z,81.90
2017-09-13T00:48:05.174Z,82.25
2017-09-13T00:50:32.421Z,82.47
2017-09-13T00:52:59.429Z,82.69
2017-09-13T00:55:25.662Z,83.14
2017-09-13T00:57:51.874Z,83.32
2017-09-13T01:00:18.322Z,83.29
2017-09-13T01:02:44.612Z,83.40
2017-09-13T01:05:11.602Z,82.87
2017-09-13T01:07:37.927Z,82.75
2017-09-13T01:10:04.165Z,82.79
2017-09-13T01:12:30.429Z,82.47
2017-09-13T01:14:56.625Z,82.38
2017-09-13T01:17:22.922Z,82.31
2017-09-13T01:19:49.124Z,82.28
2017-09-13T01:22:15.335Z,81.65
2017-09-13T01:24:41.685Z,81.47
2017-09-13T01:27:07.955Z,81.20
2017-09-13T01:29:34.242Z,81.08
2017-09-13T01:32:00.571Z,80.48
2017-09-13T01:34:27.566Z,80.47
2017-09-13T01:36:53.917Z,80.46
2017-09-13T01:39:20.229Z,80.44
2017-09-13T01:41:46.445Z,80.54
2017-09-13T01:44:13.408Z,80.58
2017-09-13T01:46:39.814Z,80.56
2017-09-13T01:49:06.087Z,80.75
2017-09-13T01:51:32.307Z,81.16
2017-09-13T01:53:58.578Z,80.88
2017-09-13T01:56:24.924Z,80.51
2017-09-13T01:58:51.112Z,80.48
2017-09-13T02:01:17.350Z,80.21
2017-09-13T02:03:43.582Z,80.10
2017-09-13T02:06:09.808Z,80.45
2017-09-13T02:08:36.073Z,79.79
2017-09-13T02:11:02.309Z,79.17
2017-09-13T02:13:28.643Z,79.15
2017-09-13T02:15:54.946Z,78.90
2017-09-13T02:18:21.176Z,78.14
2017-09-13T02:20:47.421Z,77.90
2017-09-13T02:23:13.777Z,77.52
2017-09-13T02:25:41.018Z,77.52
2017-09-13T02:28:07.234Z,77.06
2017-09-13T02:30:34.238Z,77.00
2017-09-13T02:33:00.594Z,76.96
2017-09-13T02:35:26.874Z,76.92
2017-09-13T02:37:53.098Z,77.32
2017-09-13T02:40:19.285Z,77.42
2017-09-13T02:42:45.613Z,77.51
2017-09-13T02:45:11.816Z,77.63
2017-09-13T02:47:38.098Z,77.66
2017-09-13T02:50:04.443Z,77.39
2017-09-13T02:52:31.434Z,76.97
2017-09-13T02:54:57.730Z,76.78
2017-09-13T02:57:23.997Z,76.87
2017-09-13T02:59:50.244Z,77.04
2017-09-13T03:02:16.598Z,76.47
2017-09-13T03:04:42.837Z,76.82
2017-09-13T03:07:09.017Z,76.77
2017-09-13T03:09:36.145Z,76.95
2017-09-13T03:12:02.433Z,77.11
2017-09-13T03:14:28.681Z,77.66
2017-09-13T03:16:54.960Z,78.38
2017-09-13T03:19:21.142Z,79.39
2017-09-13T03:21:47.497Z,79.78
2017-09-13T03:24:13.853Z,80.06
2017-09-13T03:26:40.145Z,80.66
2017-09-13T03:29:06.398Z,80.48
2017-09-13T03:31:32.623Z,80.38
2017-09-13T03:33:58.946Z,79.87
2017-09-13T03:36:28.925Z,80.04
2017-09-13T03:38:55.189Z,79.72
2017-09-13T03:41:22.118Z,79.53
2017-09-13T03:43:48.405Z,80.57
2017-09-13T03:46:14.613Z,80.18
2017-09-13T03:48:41.593Z,80.43
2017-09-13T03:51:07.838Z,80.20
2017-09-13T03:53:34.033Z,80.61
2017-09-13T03:56:00.299Z,80.91
2017-09-13T03:58:26.514Z,81.50
2017-09-13T04:00:52.964Z,81.99
2017-09-13T04:03:19.207Z,82.14
2017-09-13T04:05:45.417Z,82.25
2017-09-13T04:08:11.897Z,82.28
2017-09-13T04:10:38.144Z,82.08
2017-09-13T04:13:04.434Z,82.01
2017-09-13T04:15:30.723Z,81.73
2017-09-13T04:17:57.008Z,82.14
2017-09-13T04:20:23.242Z,82.10
2017-09-13T04:22:49.494Z,82.57
2017-09-13T04:25:15.848Z,83.43
2017-09-13T04:27:42.114Z,83.36
2017-09-13T04:30:09.093Z,84.23
2017-09-13T04:32:35.352Z,84.89
2017-09-13T04:35:01.620Z,84.72
2017-09-13T04:37:28.634Z,84.69
2017-09-13T04:39:54.865Z,83.64
2017-09-13T04:42:21.113Z,83.81
2017-09-13T04:44:47.366Z,83.05
2017-09-13T04:47:13.812Z,82.20
2017-09-13T04:49:40.105Z,82.53
2017-09-13T04:52:06.394Z,81.83
2017-09-13T04:54:32.726Z,82.10
2017-09-13T04:56:58.997Z,81.73
2017-09-13T04:59:25.934Z,81.39
2017-09-13T05:01:52.995Z,80.56
2017-09-13T05:04:19.244Z,80.18
2017-09-13T05:06:45.505Z,79.98
2017-09-13T05:09:11.878Z,79.76
2017-09-13T05:11:38.245Z,79.50
2017-09-13T05:14:04.572Z,79.79
2017-09-13T05:16:31.561Z,80.03
2017-09-13T05:18:57.817Z,80.10
2017-09-13T05:21:26.090Z,80.39
2017-09-13T05:23:52.409Z,80.63
2017-09-13T05:26:18.645Z,80.90
2017-09-13T05:28:44.953Z,81.02
2017-09-13T05:31:11.353Z,81.27
2017-09-13T05:33:37.682Z,81.28
2017-09-13T05:36:04.012Z,81.11
2017-09-13T05:38:30.757Z,81.37
2017-09-13T05:40:56.987Z,81.55
2017-09-13T05:43:23.168Z,81.41
2017-09-13T05:45:50.489Z,81.36
2017-09-13T05:48:16.801Z,81.06
2017-09-13T05:50:43.018Z,81.04
2017-09-13T05:53:09.249Z,80.59
2017-09-13T05:55:35.520Z,80.43
2017-09-13T05:58:01.760Z,80.20
2017-09-13T06:00:28.110Z,80.25
2017-09-13T06:02:54.477Z,80.05
2017-09-13T06:05:20.757Z,80.37
2017-09-13T06:07:46.981Z,80.41
2017-09-13T06:10:13.213Z,81.23
2017-09-13T06:12:39.454Z,80.56
2017-09-13T06:15:05.713Z,80.52
2017-09-13T06:17:31.998Z,80.54
2017-09-13T06:19:59.079Z,80.75
2017-09-13T06:22:27.403Z,80.07
2017-09-13T06:24:53.727Z,80.17
2017-09-13T06:27:20.044Z,80.21
2017-09-13T06:29:46.245Z,80.00
2017-09-13T06:32:12.542Z,80.59
2017-09-13T06:34:38.862Z,79.45
2017-09-13T06:37:05.188Z,78.84
2017-09-13T06:39:31.609Z,78.11
2017-09-13T06:41:57.825Z,78.88
2017-09-13T06:44:24.044Z,76.88
2017-09-13T06:46:51.003Z,75.21
2017-09-13T06:49:17.974Z,76.22
2017-09-13T06:51:44.256Z,74.38
2017-09-13T06:54:10.596Z,75.37
2017-09-13T06:56:37.036Z,74.75
2017-09-13T06:59:03.326Z,74.89
2017-09-13T07:01:30.047Z,74.41
2017-09-13T07:03:56.337Z,73.66
2017-09-13T07:06:22.870Z,72.83
2017-09-13T07:08:49.214Z,71.53
2017-09-13T07:11:15.418Z,71.62
2017-09-13T07:13:41.666Z,70.15
2017-09-13T07:16:08.018Z,69.46
2017-09-13T07:18:34.321Z,67.88
2017-09-13T07:21:00.553Z,67.79
2017-09-13T07:23:26.779Z,66.94
2017-09-13T07:25:53.081Z,63.98
2017-09-13T07:28:20.272Z,64.00
2017-09-13T07:30:47.483Z,61.85
2017-09-13T07:33:13.773Z,62.47
2017-09-13T07:35:40.152Z,60.13
2017-09-13T07:38:06.333Z,59.60
2017-09-13T07:40:32.585Z,59.11
2017-09-13T07:42:58.848Z,60.79
2017-09-13T07:45:25.146Z,61.66
2017-09-13T07:47:51.399Z,61.18
2017-09-13T07:50:17.633Z,62.56
2017-09-13T07:52:43.858Z,62.45
2017-09-13T07:55:10.133Z,62.03
2017-09-13T07:57:37.109Z,61.65
2017-09-13T08:00:04.066Z,63.09
2017-09-13T08:02:31.050Z,62.39
2017-09-13T08:04:57.436Z,62.47
2017-09-13T08:07:23.736Z,61.56
2017-09-13T08:09:49.929Z,61.56
2017-09-13T08:12:16.980Z,61.05
2017-09-13T08:14:43.982Z,61.79
2017-09-13T08:17:10.193Z,61.94
2017-09-13T08:19:36.464Z,61.79
2017-09-13T08:22:03.637Z,61.95
2017-09-13T08:24:29.916Z,61.66
2017-09-13T08:26:56.178Z,60.86
2017-09-13T08:29:22.415Z,61.67
2017-09-13T08:31:48.643Z,60.20
2017-09-13T08:34:14.861Z,59.71
2017-09-13T08:36:41.124Z,58.89
2017-09-13T08:39:07.420Z,59.98
2017-09-13T08:41:33.683Z,58.93
2017-09-13T08:43:59.886Z,59.60
2017-09-13T08:46:26.147Z,59.86
2017-09-13T08:48:52.342Z,59.52
2017-09-13T08:51:23.220Z,60.01
2017-09-13T08:53:53.836Z,59.47
2017-09-13T08:56:25.409Z,60.75
2017-09-13T08:58:56.932Z,60.34
2017-09-13T09:01:27.233Z,60.98
2017-09-13T09:03:59.268Z,58.47
2017-09-13T09:06:30.600Z,57.89
2017-09-13T09:09:02.775Z,56.51
2017-09-13T09:11:33.462Z,58.46
2017-09-13T09:14:03.777Z,57.57
2017-09-13T09:16:35.097Z,57.83
2017-09-13T09:19:06.661Z,59.27
2017-09-13T09:21:38.145Z,58.16
2017-09-13T09:24:08.075Z,58.82
2017-09-13T09:26:39.910Z,58.25
2017-09-13T09:29:11.696Z,56.88
2017-09-13T09:31:43.466Z,57.48
2017-09-13T09:34:13.911Z,56.97
2017-09-13T09:36:44.118Z,57.69
2017-09-13T09:39:14.350Z,55.99
2017-09-13T09:41:46.372Z,56.34
2017-09-13T09:44:16.107Z,54.32
2017-09-13T09:46:47.330Z,54.86
2017-09-13T09:49:17.654Z,54.62
2017-09-13T09:51:48.255Z,54.02
2017-09-13T09:54:18.285Z,52.53
2017-09-13T09:56:50.388Z,52.69
2017-09-13T09:59:20.707Z,53.80
2017-09-13T10:01:50.768Z,51.34
2017-09-13T10:04:21.952Z,51.37
2017-09-13T10:06:53.247Z,55.55
2017-09-13T10:09:24.634Z,58.06
2017-09-13T10:11:56.422Z,55.72
2017-09-13T10:14:26.903Z,57.32
2017-09-13T10:16:58.244Z,58.33
2017-09-13T10:19:28.893Z,62.00
2017-09-13T10:22:00.444Z,63.95
2017-09-13T10:24:31.603Z,65.43
2017-09-13T10:27:03.696Z,67.62
2017-09-13T10:29:36.006Z,66.19
2017-09-13T10:32:06.705Z,66.13
2017-09-13T10:34:37.504Z,65.66
2017-09-13T10:37:09.344Z,66.95
2017-09-13T10:39:44.167Z,67.06
2017-09-13T10:42:15.426Z,68.06
2017-09-13T10:44:46.130Z,67.67
2017-09-13T10:47:16.897Z,67.71
2017-09-13T10:49:47.474Z,66.95
2017-09-13T10:52:19.455Z,65.86
2017-09-13T10:54:50.135Z,68.18
2017-09-13T10:57:20.617Z,66.27
2017-09-13T10:59:50.439Z,69.92
2017-09-13T11:02:21.264Z,68.17
2017-09-13T11:04:52.100Z,67.78
2017-09-13T11:07:20.490Z,69.41
2017-09-13T11:09:52.176Z,67.37
2017-09-13T11:12:24.477Z,68.25
2017-09-13T11:14:55.750Z,66.35
2017-09-13T11:17:26.836Z,66.32
2017-09-13T11:19:56.951Z,66.46
2017-09-13T11:22:27.439Z,65.30
2017-09-13T11:24:57.902Z,65.12
2017-09-13T11:27:28.929Z,65.36
2017-09-13T11:30:00.180Z,64.74
2017-09-13T11:32:31.704Z,63.46
2017-09-13T11:35:03.361Z,62.13
2017-09-13T11:37:34.568Z,60.55
2017-09-13T11:40:05.183Z,59.49
2017-09-13T11:42:38.528Z,61.57
2017-09-13T11:45:08.918Z,58.21
2017-09-13T11:47:39.513Z,60.74
2017-09-13T11:50:09.866Z,59.29
2017-09-13T11:52:41.654Z,58.42
2017-09-13T11:55:13.167Z,58.17
2017-09-13T11:57:43.988Z,58.69
2017-09-13T12:00:14.411Z,58.32
2017-09-13T12:02:45.725Z,57.91
2017-09-13T12:05:16.956Z,58.76
2017-09-13T12:07:49.664Z,56.88
2017-09-13T12:10:19.877Z,55.04
2017-09-13T12:12:50.863Z,56.29
2017-09-13T12:15:22.766Z,55.94
2017-09-13T12:17:54.427Z,55.47
2017-09-13T12:20:25.484Z,55.21
2017-09-13T12:22:56.644Z,54.58
2017-09-13T12:25:27.016Z,53.43
2017-09-13T12:27:58.697Z,51.14
2017-09-13T12:30:29.418Z,51.36
2017-09-13T12:33:00.742Z,52.70
2017-09-13T12:35:31.066Z,51.33
2017-09-13T12:38:02.590Z,52.47
2017-09-13T12:40:32.608Z,52.48
2017-09-13T12:43:05.722Z,53.14
2017-09-13T12:45:39.067Z,54.97
2017-09-13T12:48:10.356Z,58.02
2017-09-13T12:50:40.955Z,59.75
2017-09-13T12:53:12.434Z,61.04
2017-09-13T12:55:38.670Z,61.16
2017-09-13T12:58:04.846Z,62.40
2017-09-13T13:00:31.206Z,62.60
2017-09-13T13:02:58.189Z,64.19
2017-09-13T13:05:24.440Z,64.95
2017-09-13T13:07:50.702Z,65.47
2017-09-13T13:10:16.914Z,65.21
2017-09-13T13:12:43.142Z,66.00
2017-09-13T13:15:09.390Z,66.14
2017-09-13T13:17:35.609Z,66.68
2017-09-13T13:20:01.824Z,67.24
2017-09-13T13:22:28.085Z,67.31
2017-09-13T13:24:54.318Z,68.39
2017-09-13T13:27:20.871Z,67.84
2017-09-13T13:29:47.077Z,67.67
2017-09-13T13:32:13.331Z,70.07
2017-09-13T13:34:39.559Z,70.85
2017-09-13T13:37:05.790Z,72.48
2017-09-13T13:39:31.993Z,75.07
2017-09-13T13:41:58.237Z,73.57
2017-09-13T13:44:25.226Z,75.83
2017-09-13T13:46:51.459Z,73.08
2017-09-13T13:49:17.701Z,73.36
2017-09-13T13:51:43.923Z,72.16
2017-09-13T13:54:10.141Z,72.52
2017-09-13T13:56:36.421Z,71.21
2017-09-13T13:59:02.756Z,69.27
2017-09-13T14:01:29.145Z,68.98
2017-09-13T14:03:55.403Z,69.07
2017-09-13T14:06:21.653Z,66.74
2017-09-13T14:08:47.890Z,67.74
2017-09-13T14:11:14.199Z,67.70
2017-09-13T14:13:40.502Z,67.33
2017-09-13T14:16:07.687Z,68.45
2017-09-13T14:18:33.921Z,69.61
2017-09-13T14:21:00.182Z,68.78
2017-09-13T14:23:26.381Z,70.63
2017-09-13T14:25:52.767Z,71.87
2017-09-13T14:28:19.106Z,72.56
2017-09-13T14:30:45.426Z,73.99
2017-09-13T14:33:11.676Z,74.05
2017-09-13T14:35:38.005Z,74.89
2017-09-13T14:38:04.342Z,75.13
2017-09-13T14:40:30.566Z,76.07
2017-09-13T14:42:56.788Z,76.59
2017-09-13T14:45:25.066Z,76.97
2017-09-13T14:47:51.322Z,76.12
2017-09-13T14:50:17.650Z,76.46
2017-09-13T14:52:43.841Z,77.31
2017-09-13T14:55:10.835Z,77.21
2017-09-13T14:57:37.423Z,78.44
2017-09-13T15:00:03.719Z,77.17
2017-09-13T15:02:29.947Z,78.77
2017-09-13T15:04:56.202Z,79.62
2017-09-13T15:07:22.498Z,79.10
2017-09-13T15:09:48.899Z,79.42
2017-09-13T15:12:15.871Z,79.04
2017-09-13T15:14:42.846Z,79.45
2017-09-13T15:17:09.149Z,78.66
2017-09-13T15:19:36.148Z,79.00
2017-09-13T15:22:02.397Z,78.99
2017-09-13T15:24:28.751Z,80.07
2017-09-13T15:26:55.105Z,80.00
2017-09-13T15:29:22.127Z,79.69
2017-09-13T15:31:48.488Z,80.69
2017-09-13T15:34:16.525Z,81.08
2017-09-13T15:36:42.738Z,79.63
2017-09-13T15:39:09.087Z,80.97
2017-09-13T15:41:35.313Z,81.23
2017-09-13T15:44:01.545Z,81.35
2017-09-13T15:46:27.742Z,81.16
2017-09-13T15:48:54.764Z,81.38
2017-09-13T15:51:21.094Z,81.31
2017-09-13T15:53:47.378Z,81.92
2017-09-13T15:56:14.317Z,82.19
2017-09-13T15:58:41.334Z,82.71
2017-09-13T16:01:07.643Z,82.95
2017-09-13T16:03:34.378Z,82.67
2017-09-13T16:06:00.619Z,81.00
2017-09-13T16:08:26.886Z,80.97
2017-09-13T16:10:53.078Z,79.95
2017-09-13T16:13:19.554Z,79.50
2017-09-13T16:15:45.841Z,79.24
2017-09-13T16:18:12.105Z,79.18
2017-09-13T16:20:38.400Z,78.32
2017-09-13T16:23:05.416Z,78.17
2017-09-13T16:25:31.621Z,77.58
2017-09-13T16:27:57.923Z,77.90
2017-09-13T16:30:25.144Z,77.34
2017-09-13T16:32:51.478Z,77.10
2017-09-13T16:35:17.701Z,76.55
2017-09-13T16:37:43.938Z,76.20
2017-09-13T16:40:10.308Z,75.58
2017-09-13T16:42:36.594Z,75.30
2017-09-13T16:45:02.910Z,75.04
2017-09-13T16:47:29.203Z,74.75
2017-09-13T16:49:55.621Z,74.38
2017-09-13T16:52:21.901Z,75.26
2017-09-13T16:54:49.142Z,75.35
2017-09-13T16:57:15.668Z,76.88
2017-09-13T16:59:42.020Z,80.20
2017-09-13T17:02:08.257Z,79.41
2017-09-13T17:04:35.222Z,79.75
2017-09-13T17:07:01.499Z,79.11
2017-09-13T17:09:27.710Z,77.64
2017-09-13T17:11:53.981Z,77.00
2017-09-13T17:14:20.216Z,78.13
2017-09-13T17:16:46.505Z,78.15
2017-09-13T17:19:12.949Z,78.45
2017-09-13T17:21:39.910Z,78.81
2017-09-13T17:24:06.164Z,77.83
2017-09-13T17:26:32.443Z,77.32
2017-09-13T17:28:58.802Z,77.76
2017-09-13T17:31:25.088Z,77.07
2017-09-13T17:33:51.699Z,76.93
2017-09-13T17:36:17.977Z,76.46
2017-09-13T17:38:44.385Z,77.41
2017-09-13T17:41:10.667Z,76.54
2017-09-13T17:43:36.985Z,75.82
2017-09-13T17:46:03.290Z,75.66
2017-09-13T17:48:35.359Z,76.07
2017-09-13T17:51:02.051Z,74.97
2017-09-13T17:53:28.382Z,75.61
2017-09-13T17:55:54.706Z,75.07
2017-09-13T17:58:20.949Z,75.06
2017-09-13T18:00:47.281Z,75.43
2017-09-13T18:03:13.798Z,75.23
2017-09-13T18:05:45.367Z,75.54
2017-09-13T18:08:15.564Z,75.30
2017-09-13T18:10:41.846Z,75.64
2017-09-13T18:13:08.159Z,76.43
2017-09-13T18:15:34.378Z,76.22
2017-09-13T18:18:00.635Z,76.24
2017-09-13T18:20:26.870Z,76.10
2017-09-13T18:22:53.074Z,76.74
2017-09-13T18:25:19.342Z,77.19
2017-09-13T18:27:45.565Z,76.84
2017-09-13T18:30:11.822Z,76.88
2017-09-13T18:32:38.149Z,76.69
2017-09-13T18:35:04.353Z,76.52
2017-09-13T18:37:30.591Z,76.68
2017-09-13T18:39:56.860Z,76.62
2017-09-13T18:42:23.190Z,76.61
2017-09-13T18:44:49.413Z,76.25
2017-09-13T18:47:15.753Z,76.05
2017-09-13T18:49:42.094Z,75.44
2017-09-13T18:52:09.331Z,75.36
2017-09-13T18:54:35.528Z,75.45
2017-09-13T18:57:02.488Z,74.88
2017-09-13T18:59:29.485Z,74.61
2017-09-13T19:01:55.815Z,74.24
2017-09-13T19:04:22.034Z,74.39
2017-09-13T19:06:48.274Z,74.18
2017-09-13T19:09:14.547Z,73.66
2017-09-13T19:11:40.874Z,73.82
2017-09-13T19:14:07.273Z,73.29
2017-09-13T19:16:33.562Z,72.75
2017-09-13T19:19:00.174Z,72.91
2017-09-13T19:21:26.482Z,72.45
2017-09-13T19:23:52.766Z,72.84
2017-09-13T19:26:19.258Z,72.73
2017-09-13T19:28:45.466Z,72.79
2017-09-13T19:31:11.814Z,72.32
2017-09-13T19:33:38.082Z,72.25
2017-09-13T19:36:04.330Z,72.42
2017-09-13T19:38:30.577Z,71.17
2017-09-13T19:40:56.923Z,71.18
2017-09-13T19:43:23.242Z,70.31
2017-09-13T19:45:49.433Z,70.54
2017-09-13T19:48:15.861Z,70.31
2017-09-13T19:50:43.024Z,70.24
2017-09-13T19:53:09.339Z,69.93
2017-09-13T19:55:36.337Z,69.70
2017-09-13T19:58:02.662Z,69.59
2017-09-13T20:00:28.926Z,69.71
2017-09-13T20:02:55.175Z,68.99
2017-09-13T20:05:21.900Z,68.90
2017-09-13T20:07:48.124Z,68.59
2017-09-13T20:10:14.615Z,68.69
2017-09-13T20:12:42.654Z,68.65
2017-09-13T20:15:08.906Z,68.22
2017-09-13T20:17:35.229Z,67.42
2017-09-13T20:20:01.466Z,67.69
2017-09-13T20:22:27.654Z,67.98
2017-09-13T20:24:54.245Z,68.21
2017-09-13T20:27:20.568Z,66.88
2017-09-13T20:29:46.807Z,66.57
2017-09-13T20:32:14.078Z,65.49
2017-09-13T20:34:40.282Z,65.52
2017-09-13T20:37:07.589Z,65.63
2017-09-13T20:39:33.925Z,65.15
2017-09-13T20:42:01.125Z,64.70
2017-09-13T20:44:27.398Z,65.18
2017-09-13T20:46:53.657Z,65.81
2017-09-13T20:49:20.182Z,65.96
2017-09-13T20:51:46.524Z,65.09
2017-09-13T20:54:12.816Z,65.56
2017-09-13T20:56:39.094Z,65.41
2017-09-13T20:59:05.452Z,64.49
2017-09-13T21:01:32.462Z,64.99
2017-09-13T21:04:01.046Z,64.60
2017-09-13T21:06:27.401Z,64.11
2017-09-13T21:08:53.741Z,64.71
2017-09-13T21:11:20.112Z,65.19
2017-09-13T21:13:47.813Z,65.31
2017-09-13T21:16:14.165Z,65.04
2017-09-13T21:18:40.393Z,64.91
2017-09-13T21:21:07.148Z,64.68
2017-09-13T21:23:34.277Z,64.44
2017-09-13T21:26:01.098Z,64.88
2017-09-13T21:28:28.412Z,65.10
2017-09-13T21:30:55.537Z,65.18
2017-09-13T21:33:25.359Z,64.98
2017-09-13T21:35:53.261Z,64.68
2017-09-13T21:38:19.454Z,65.16
2017-09-13T21:40:46.100Z,64.90
2017-09-13T21:43:14.205Z,64.53
2017-09-13T21:45:41.591Z,64.62
2017-09-13T21:48:08.249Z,64.74
2017-09-13T21:50:36.285Z,64.67
2017-09-13T21:53:03.538Z,63.47
2017-09-13T21:55:34.875Z,63.08
2017-09-13T21:58:01.541Z,63.03
2017-09-13T22:00:28.106Z,63.62
2017-09-13T22:02:55.120Z,62.69
2017-09-13T22:05:21.810Z,62.79
2017-09-13T22:07:48.142Z,63.54
2017-09-13T22:10:14.711Z,63.31
2017-09-13T22:12:41.105Z,64.20
2017-09-13T22:15:07.385Z,63.91
2017-09-13T22:17:34.478Z,63.91
2017-09-13T22:20:01.147Z,63.96
2017-09-13T22:22:27.707Z,64.42
2017-09-13T22:24:54.898Z,63.97
2017-09-13T22:27:21.359Z,63.96
2017-09-13T22:29:47.593Z,64.10
2017-09-13T22:32:13.831Z,64.75
2017-09-13T22:34:40.090Z,64.70
2017-09-13T22:37:06.919Z,65.14
2017-09-13T22:39:34.054Z,65.38
2017-09-13T22:42:00.386Z,65.05
2017-09-13T22:44:26.613Z,64.95
2017-09-13T22:46:52.939Z,64.82
2017-09-13T22:49:19.899Z,64.76
2017-09-13T22:51:46.262Z,63.82
2017-09-13T22:54:13.405Z,63.04
2017-09-13T22:56:40.266Z,62.70
2017-09-13T22:59:07.681Z,61.77
2017-09-13T23:01:34.079Z,61.57
2017-09-13T23:04:00.399Z,61.27
2017-09-13T23:06:26.641Z,61.32
2017-09-13T23:08:52.858Z,60.81
2017-09-13T23:11:19.100Z,60.31
2017-09-13T23:13:45.417Z,61.34
2017-09-13T23:16:11.694Z,60.69
2017-09-13T23:18:38.097Z,59.79
2017-09-13T23:21:04.349Z,60.27
2017-09-13T23:23:30.598Z,60.99
2017-09-13T23:25:56.830Z,60.19
2017-09-13T23:28:23.133Z,60.72
2017-09-13T23:30:49.770Z,60.94
2017-09-13T23:33:16.063Z,60.84
2017-09-13T23:35:42.378Z,60.99
2017-09-13T23:38:08.578Z,61.25
2017-09-13T23:40:34.805Z,61.43
2017-09-13T23:43:01.790Z,61.02
2017-09-13T23:45:28.138Z,61.09
2017-09-13T23:47:54.466Z,61.04
2017-09-13T23:50:20.691Z,61.11
2017-09-13T23:52:46.926Z,61.29
2017-09-13T23:55:13.219Z,61.33
2017-09-13T23:57:40.225Z,61.13
